createdAt,value
2018-06-18T00:00:50.574Z,4.03
2018-06-18T00:03:18.876Z,4.83
2018-06-18T00:05:47.195Z,4.90
2018-06-18T00:08:15.509Z,4.20
2018-06-18T00:10:43.838Z,4.40
2018-06-18T00:13:12.252Z,4.07
2018-06-18T00:15:40.583Z,3.63
2018-06-18T00:18:08.886Z,4.10
2018-06-18T00:20:37.207Z,4.30
2018-06-18T00:23:05.533Z,4.50
2018-06-18T00:25:33.862Z,4.50
2018-06-18T00:28:02.158Z,3.60
2018-06-18T00:30:30.474Z,5.10
2018-06-18T00:32:58.778Z,5.07
2018-06-18T00:35:27.097Z,4.20
2018-06-18T00:37:55.399Z,4.47
2018-06-18T00:40:23.720Z,3.80
2018-06-18T00:42:52.027Z,4.43
2018-06-18T00:45:20.350Z,5.13
2018-06-18T00:47:48.663Z,4.73
2018-06-18T00:50:17.011Z,4.57
2018-06-18T00:52:45.314Z,4.50
2018-06-18T00:55:24.559Z,3.93
2018-06-18T00:57:52.869Z,4.30
2018-06-18T01:00:21.231Z,4.50
2018-06-18T01:02:49.820Z,4.30
2018-06-18T01:05:18.166Z,4.50
2018-06-18T01:07:46.523Z,5.13
2018-06-18T01:10:14.874Z,4.80
2018-06-18T01:12:43.178Z,4.93
2018-06-18T01:15:11.498Z,4.50
2018-06-18T01:17:39.866Z,4.33
2018-06-18T01:20:08.155Z,4.40
2018-06-18T01:22:37.695Z,4.23
2018-06-18T01:25:07.014Z,4.90
2018-06-18T01:27:35.342Z,4.90
2018-06-18T01:30:03.811Z,4.43
2018-06-18T01:32:32.134Z,4.30
2018-06-18T01:35:00.437Z,4.20
2018-06-18T01:37:28.762Z,4.60
2018-06-18T01:39:57.074Z,4.60
2018-06-18T01:42:25.399Z,4.27
2018-06-18T01:44:53.710Z,4.30
2018-06-18T01:47:22.039Z,4.00
2018-06-18T01:49:50.347Z,4.47
2018-06-18T01:52:18.695Z,4.50
2018-06-18T01:54:46.997Z,4.30
2018-06-18T01:57:15.319Z,4.50
2018-06-18T01:59:43.623Z,4.77
2018-06-18T02:02:11.938Z,4.13
2018-06-18T02:04:40.243Z,4.00
2018-06-18T02:07:08.566Z,5.00
2018-06-18T02:09:36.871Z,5.13
2018-06-18T02:12:05.231Z,5.07
2018-06-18T02:14:33.567Z,4.80
2018-06-18T02:17:01.891Z,4.30
2018-06-18T02:19:30.194Z,5.03
2018-06-18T02:21:58.518Z,4.47
2018-06-18T02:24:26.810Z,4.53
2018-06-18T02:27:00.493Z,4.70
2018-06-18T02:29:34.310Z,3.73
2018-06-18T02:32:08.051Z,4.63
2018-06-18T02:34:41.828Z,4.50
2018-06-18T02:37:15.686Z,4.40
2018-06-18T02:39:49.462Z,4.40
2018-06-18T02:42:17.774Z,5.20
2018-06-18T02:44:46.090Z,4.20
2018-06-18T02:47:14.414Z,4.30
2018-06-18T02:49:42.718Z,4.30
2018-06-18T02:52:11.073Z,4.87
2018-06-18T02:54:39.386Z,3.97
2018-06-18T02:57:09.431Z,4.60
2018-06-18T02:59:37.744Z,4.40
2018-06-18T03:02:06.363Z,4.67
2018-06-18T03:04:34.714Z,4.53
2018-06-18T03:07:03.038Z,4.03
2018-06-18T03:09:31.346Z,4.63
2018-06-18T03:11:59.694Z,4.00
2018-06-18T03:14:27.998Z,4.30
2018-06-18T03:16:56.337Z,3.90
2018-06-18T03:19:30.087Z,4.43
2018-06-18T03:22:03.747Z,4.47
2018-06-18T03:24:37.524Z,5.43
2018-06-18T03:27:11.106Z,4.50
2018-06-18T03:29:39.418Z,4.40
2018-06-18T03:32:11.114Z,4.13
2018-06-18T03:34:39.446Z,4.90
2018-06-18T03:37:09.347Z,4.77
2018-06-18T03:39:37.668Z,5.00
2018-06-18T03:42:06.526Z,4.90
2018-06-18T03:44:52.719Z,5.73
2018-06-18T03:47:25.322Z,5.17
2018-06-18T03:49:53.903Z,5.43
2018-06-18T03:52:22.239Z,4.80
2018-06-18T03:54:52.471Z,5.20
2018-06-18T03:57:20.786Z,5.33
2018-06-18T03:59:49.114Z,4.90
2018-06-18T04:02:37.767Z,5.07
2018-06-18T04:05:11.645Z,4.60
2018-06-18T04:07:45.450Z,4.40
2018-06-18T04:10:19.623Z,5.20
2018-06-18T04:12:47.942Z,5.00
2018-06-18T04:15:16.250Z,5.10
2018-06-18T04:17:44.574Z,5.40
2018-06-18T04:20:12.874Z,4.80
2018-06-18T04:22:41.198Z,5.10
2018-06-18T04:25:09.498Z,4.73
2018-06-18T04:27:37.819Z,4.57
2018-06-18T04:30:06.163Z,4.60
2018-06-18T04:32:34.499Z,4.37
2018-06-18T04:35:05.202Z,4.80
2018-06-18T04:37:33.588Z,4.90
2018-06-18T04:40:01.843Z,4.10
2018-06-18T04:42:35.493Z,4.57
2018-06-18T04:45:09.244Z,4.80
2018-06-18T04:47:43.073Z,4.90
2018-06-18T04:50:16.802Z,5.07
2018-06-18T04:52:45.130Z,4.50
2018-06-18T04:55:13.470Z,5.50
2018-06-18T04:57:41.795Z,4.87
2018-06-18T05:01:19.294Z,5.00
2018-06-18T05:03:47.618Z,4.30
2018-06-18T05:06:15.955Z,4.53
2018-06-18T05:09:22.959Z,4.70
2018-06-18T05:11:51.259Z,4.40
2018-06-18T05:14:19.575Z,3.87
2018-06-18T05:16:48.410Z,4.47
2018-06-18T05:19:16.778Z,4.63
2018-06-18T05:21:45.070Z,3.60
2018-06-18T05:24:13.403Z,4.20
2018-06-18T05:26:45.877Z,4.40
2018-06-18T05:29:14.423Z,4.30
2018-06-18T05:31:42.699Z,3.97
2018-06-18T05:34:11.793Z,4.40
2018-06-18T05:36:40.094Z,5.07
2018-06-18T05:39:09.067Z,4.50
2018-06-18T05:41:37.407Z,4.40
2018-06-18T05:44:05.706Z,4.00
2018-06-18T05:46:33.998Z,3.63
2018-06-18T05:49:02.330Z,3.80
2018-06-18T05:51:30.657Z,3.70
2018-06-18T05:53:58.995Z,4.30
2018-06-18T05:56:27.303Z,4.10
2018-06-18T05:58:55.619Z,3.40
2018-06-18T06:01:23.914Z,3.70
2018-06-18T06:03:52.226Z,3.50
2018-06-18T06:06:20.527Z,3.60
2018-06-18T06:08:48.842Z,4.00
2018-06-18T06:11:17.147Z,3.87
2018-06-18T06:13:45.479Z,4.03
2018-06-18T06:16:13.787Z,3.90
2018-06-18T06:18:42.102Z,3.60
2018-06-18T06:21:12.231Z,4.07
2018-06-18T06:23:40.655Z,3.40
2018-06-18T06:26:08.958Z,4.00
2018-06-18T06:28:37.274Z,3.33
2018-06-18T06:31:05.902Z,4.03
2018-06-18T06:33:34.226Z,4.10
2018-06-18T06:36:03.091Z,3.73
2018-06-18T06:38:31.411Z,4.17
2018-06-18T06:40:59.757Z,3.97
2018-06-18T06:43:28.088Z,3.60
2018-06-18T06:45:56.406Z,3.83
2018-06-18T06:48:24.722Z,3.27
2018-06-18T06:50:53.521Z,2.83
2018-06-18T06:53:21.830Z,4.27
2018-06-18T06:55:50.154Z,3.97
2018-06-18T06:58:18.458Z,3.87
2018-06-18T07:00:46.784Z,3.00
2018-06-18T07:03:15.172Z,3.33
2018-06-18T07:05:43.487Z,3.70
2018-06-18T07:08:11.786Z,4.10
2018-06-18T07:10:40.104Z,3.90
2018-06-18T07:13:08.419Z,2.83
2018-06-18T07:15:36.726Z,3.20
2018-06-18T07:18:05.331Z,3.73
2018-06-18T07:20:33.647Z,4.23
2018-06-18T07:23:01.942Z,3.50
2018-06-18T07:25:30.262Z,3.87
2018-06-18T07:27:58.553Z,3.70
2018-06-18T07:30:26.947Z,3.70
2018-06-18T07:32:55.167Z,3.30
2018-06-18T07:35:23.498Z,3.73
2018-06-18T07:37:51.797Z,3.67
2018-06-18T07:40:20.115Z,4.70
2018-06-18T07:42:48.442Z,4.37
2018-06-18T07:45:16.842Z,3.73
2018-06-18T07:47:45.138Z,3.10
2018-06-18T07:50:13.491Z,3.90
2018-06-18T07:52:41.860Z,4.10
2018-06-18T07:55:10.179Z,3.40
2018-06-18T07:57:38.478Z,3.40
2018-06-18T08:00:06.884Z,3.70
2018-06-18T08:02:35.183Z,3.17
2018-06-18T08:05:03.514Z,4.00
2018-06-18T08:07:31.812Z,4.00
2018-06-18T08:10:00.315Z,3.70
2018-06-18T08:12:28.526Z,3.43
2018-06-18T08:14:56.838Z,3.70
2018-06-18T08:17:25.131Z,4.33
2018-06-18T08:19:53.461Z,3.90
2018-06-18T08:22:21.481Z,3.60
2018-06-18T08:24:50.511Z,4.30
2018-06-18T08:27:18.877Z,4.03
2018-06-18T08:29:47.186Z,4.77
2018-06-18T08:32:15.539Z,4.00
2018-06-18T08:34:43.589Z,4.60
2018-06-18T08:37:11.878Z,4.57
2018-06-18T08:39:40.203Z,4.40
2018-06-18T08:42:08.519Z,4.87
2018-06-18T08:44:36.878Z,4.53
2018-06-18T08:47:05.502Z,4.30
2018-06-18T08:49:37.325Z,4.30
2018-06-18T08:52:11.223Z,4.00
2018-06-18T08:54:44.959Z,4.03
2018-06-18T08:57:18.807Z,3.43
2018-06-18T08:59:52.498Z,3.80
2018-06-18T09:02:26.290Z,3.50
2018-06-18T09:04:59.799Z,3.40
2018-06-18T09:07:31.559Z,3.27
2018-06-18T09:10:00.418Z,3.13
2018-06-18T09:12:28.727Z,2.87
2018-06-18T09:14:57.050Z,2.90
2018-06-18T09:17:25.355Z,3.83
2018-06-18T09:19:53.674Z,3.67
2018-06-18T09:22:21.982Z,3.90
2018-06-18T09:24:50.289Z,3.20
2018-06-18T09:27:18.614Z,4.10
2018-06-18T09:29:52.435Z,3.57
2018-06-18T09:32:20.848Z,3.30
2018-06-18T09:34:49.166Z,3.40
2018-06-18T09:37:17.467Z,3.33
2018-06-18T09:39:45.774Z,2.80
2018-06-18T09:42:14.118Z,3.30
2018-06-18T09:44:42.429Z,3.00
2018-06-18T09:47:10.763Z,2.83
2018-06-18T09:49:44.472Z,3.63
2018-06-18T09:52:18.277Z,3.43
2018-06-18T09:54:52.002Z,3.00
2018-06-18T09:57:27.166Z,3.30
2018-06-18T10:00:02.311Z,3.17
2018-06-18T10:02:30.635Z,2.97
2018-06-18T10:04:59.760Z,2.83
2018-06-18T10:07:28.115Z,2.80
2018-06-18T10:09:56.907Z,3.10
2018-06-18T10:12:25.567Z,2.90
2018-06-18T10:14:53.831Z,2.60
2018-06-18T10:17:22.183Z,3.17
2018-06-18T10:19:51.582Z,2.80
2018-06-18T10:22:19.898Z,3.07
2018-06-18T10:24:48.362Z,3.37
2018-06-18T10:27:16.783Z,3.27
2018-06-18T10:29:45.247Z,2.87
2018-06-18T10:32:19.024Z,3.07
2018-06-18T10:34:52.682Z,3.20
2018-06-18T10:37:26.439Z,3.30
2018-06-18T10:40:00.167Z,3.00
2018-06-18T10:42:34.001Z,3.00
2018-06-18T10:45:02.330Z,4.57
2018-06-18T10:47:30.650Z,2.97
2018-06-18T10:49:58.969Z,3.10
2018-06-18T10:52:27.322Z,3.33
2018-06-18T10:54:55.638Z,2.80
2018-06-18T10:57:23.963Z,3.40
2018-06-18T10:59:52.275Z,2.67
2018-06-18T11:02:20.636Z,2.40
2018-06-18T11:04:54.484Z,3.03
2018-06-18T11:07:22.930Z,2.60
2018-06-18T11:09:51.248Z,2.73
2018-06-18T11:12:19.575Z,2.60
2018-06-18T11:14:47.880Z,2.57
2018-06-18T11:17:21.684Z,2.67
2018-06-18T11:19:55.178Z,2.83
2018-06-18T11:22:27.750Z,2.40
2018-06-18T11:25:01.336Z,2.90
2018-06-18T11:27:29.686Z,2.43
2018-06-18T11:29:58.050Z,2.80
2018-06-18T11:32:26.584Z,2.10
2018-06-18T11:34:54.896Z,1.83
2018-06-18T11:37:23.223Z,2.03
2018-06-18T11:39:51.535Z,2.27
2018-06-18T11:42:19.912Z,2.60
2018-06-18T11:44:48.182Z,2.17
2018-06-18T11:47:16.511Z,2.53
2018-06-18T11:49:44.822Z,2.40
2018-06-18T11:52:13.167Z,4.00
2018-06-18T11:54:41.480Z,3.00
2018-06-18T11:57:09.803Z,2.43
2018-06-18T11:59:43.615Z,2.13
2018-06-18T12:02:17.411Z,2.73
2018-06-18T12:04:51.134Z,2.40
2018-06-18T12:07:24.971Z,2.60
2018-06-18T12:09:53.571Z,2.60
2018-06-18T12:12:21.907Z,2.43
2018-06-18T12:14:50.267Z,2.63
2018-06-18T12:17:18.602Z,2.57
2018-06-18T12:19:46.950Z,2.33
2018-06-18T12:22:15.299Z,2.80
2018-06-18T12:24:43.607Z,2.60
2018-06-18T12:27:15.271Z,2.50
2018-06-18T12:29:43.779Z,2.70
2018-06-18T12:32:12.123Z,2.50
2018-06-18T12:34:40.432Z,3.33
2018-06-18T12:37:08.770Z,3.00
2018-06-18T12:39:37.095Z,2.10
2018-06-18T12:42:06.762Z,2.83
2018-06-18T12:44:42.413Z,2.30
2018-06-18T12:47:16.149Z,2.30
2018-06-18T12:49:49.974Z,2.23
2018-06-18T12:52:23.815Z,2.37
2018-06-18T12:54:57.464Z,2.73
2018-06-18T12:57:25.802Z,2.27
2018-06-18T12:59:54.111Z,2.33
2018-06-18T13:02:28.727Z,2.50
2018-06-18T13:04:59.118Z,2.67
2018-06-18T13:07:27.481Z,2.50
2018-06-18T13:09:57.005Z,2.20
2018-06-18T13:12:25.258Z,2.40
2018-06-18T13:14:53.557Z,2.10
2018-06-18T13:17:21.922Z,2.50
2018-06-18T13:19:50.262Z,2.30
2018-06-18T13:22:18.602Z,2.40
2018-06-18T13:24:46.930Z,2.47
2018-06-18T13:27:15.263Z,2.83
2018-06-18T13:29:43.574Z,2.87
2018-06-18T13:32:11.951Z,3.03
2018-06-18T13:34:40.281Z,2.70
2018-06-18T13:38:15.775Z,2.07
2018-06-18T13:40:49.420Z,2.87
2018-06-18T13:43:22.932Z,2.97
2018-06-18T13:45:58.399Z,5.80
2018-06-18T13:48:32.433Z,3.17
2018-06-18T13:51:00.754Z,2.47
2018-06-18T13:53:29.106Z,2.80
2018-06-18T13:55:57.456Z,1.97
2018-06-18T13:58:25.814Z,2.00
2018-06-18T14:00:54.119Z,2.50
2018-06-18T14:03:22.572Z,1.77
2018-06-18T14:05:50.875Z,2.10
2018-06-18T14:08:19.203Z,2.10
2018-06-18T14:10:47.506Z,2.20
2018-06-18T14:13:15.935Z,1.90
2018-06-18T14:15:44.247Z,2.13
2018-06-18T14:18:12.564Z,1.97
2018-06-18T14:20:40.871Z,2.20
2018-06-18T14:23:09.199Z,1.77
2018-06-18T14:25:37.507Z,2.07
2018-06-18T14:28:05.889Z,2.20
2018-06-18T14:30:39.763Z,2.07
2018-06-18T14:33:13.422Z,2.20
2018-06-18T14:35:47.126Z,2.10
2018-06-18T14:38:20.984Z,2.00
2018-06-18T14:40:49.286Z,2.40
2018-06-18T14:43:17.610Z,2.40
2018-06-18T14:45:45.967Z,2.60
2018-06-18T14:48:14.309Z,2.40
2018-06-18T14:50:42.666Z,2.90
2018-06-18T14:53:10.990Z,2.90
2018-06-18T14:55:39.295Z,2.80
2018-06-18T14:58:07.712Z,2.73
2018-06-18T15:00:36.332Z,3.10
2018-06-18T15:03:04.648Z,3.00
2018-06-18T15:05:36.027Z,3.20
2018-06-18T15:08:04.608Z,3.50
2018-06-18T15:10:38.351Z,3.97
2018-06-18T15:13:08.482Z,3.40
2018-06-18T15:15:42.234Z,3.40
2018-06-18T15:18:10.566Z,3.67
2018-06-18T15:20:38.882Z,3.00
2018-06-18T15:23:08.283Z,3.50
2018-06-18T15:25:52.441Z,3.20
2018-06-18T15:28:20.810Z,3.20
2018-06-18T15:30:49.124Z,2.60
2018-06-18T15:33:17.454Z,3.10
2018-06-18T15:35:45.763Z,3.07
2018-06-18T15:38:14.083Z,3.03
2018-06-18T15:40:42.458Z,2.70
2018-06-18T15:43:10.883Z,3.17
2018-06-18T15:45:39.242Z,3.33
2018-06-18T15:48:07.582Z,3.20
2018-06-18T15:50:35.958Z,2.87
2018-06-18T15:53:04.274Z,2.80
2018-06-18T15:55:32.602Z,3.57
2018-06-18T15:58:00.923Z,2.60
2018-06-18T16:00:29.245Z,3.23
2018-06-18T16:02:57.558Z,3.00
2018-06-18T16:05:25.885Z,2.90
2018-06-18T16:07:54.247Z,3.10
2018-06-18T16:10:22.588Z,3.33
2018-06-18T16:12:50.899Z,3.00
2018-06-18T16:15:19.258Z,3.07
2018-06-18T16:17:47.568Z,3.07
2018-06-18T16:20:16.150Z,3.13
2018-06-18T16:22:44.471Z,3.03
2018-06-18T16:25:12.790Z,2.90
2018-06-18T16:27:41.098Z,3.07
2018-06-18T16:30:09.466Z,3.03
2018-06-18T16:32:37.794Z,2.47
2018-06-18T16:35:06.131Z,3.00
2018-06-18T16:37:34.446Z,3.07
2018-06-18T16:40:02.778Z,2.57
2018-06-18T16:42:31.121Z,2.80
2018-06-18T16:44:59.434Z,3.17
2018-06-18T16:47:27.790Z,3.00
2018-06-18T16:49:56.119Z,3.17
2018-06-18T16:52:24.439Z,3.30
2018-06-18T16:54:52.826Z,3.43
2018-06-18T16:57:21.145Z,3.83
2018-06-18T16:59:49.494Z,2.93
2018-06-18T17:02:17.820Z,3.00
2018-06-18T17:04:46.155Z,2.80
2018-06-18T17:07:14.458Z,3.03
2018-06-18T17:09:42.816Z,3.60
2018-06-18T17:12:11.128Z,3.30
2018-06-18T17:14:39.466Z,3.17
2018-06-18T17:17:07.762Z,2.90
2018-06-18T17:19:36.086Z,2.67
2018-06-18T17:22:04.424Z,2.67
2018-06-18T17:24:32.766Z,2.87
2018-06-18T17:27:01.075Z,2.80
2018-06-18T17:29:29.403Z,3.00
2018-06-18T17:31:57.735Z,2.80
2018-06-18T17:34:26.059Z,2.73
2018-06-18T17:36:54.390Z,3.03
2018-06-18T17:39:22.690Z,3.40
2018-06-18T17:41:51.051Z,2.70
2018-06-18T17:44:19.354Z,3.00
2018-06-18T17:46:47.667Z,3.00
2018-06-18T17:49:16.114Z,3.07
2018-06-18T17:51:44.468Z,2.90
2018-06-18T17:54:12.779Z,3.23
2018-06-18T17:56:41.210Z,3.40
2018-06-18T17:59:09.507Z,3.33
2018-06-18T18:01:37.880Z,3.20
2018-06-18T18:04:06.346Z,2.73
2018-06-18T18:06:34.723Z,3.17
2018-06-18T18:09:03.534Z,3.20
2018-06-18T18:11:31.885Z,3.53
2018-06-18T18:14:00.183Z,3.40
2018-06-18T18:16:28.593Z,3.03
2018-06-18T18:21:31.890Z,3.27
2018-06-18T18:24:00.191Z,3.67
2018-06-18T18:26:28.654Z,3.70
2018-06-18T18:28:57.091Z,2.90
2018-06-18T18:31:25.410Z,3.03
2018-06-18T18:33:53.806Z,3.03
2018-06-18T18:36:22.106Z,3.20
2018-06-18T18:38:50.408Z,2.90
2018-06-18T18:41:18.730Z,3.00
2018-06-18T18:43:47.046Z,2.70
2018-06-18T18:46:15.408Z,2.70
2018-06-18T18:48:43.775Z,2.60
2018-06-18T18:51:12.175Z,2.20
2018-06-18T18:53:40.611Z,3.00
2018-06-18T18:56:20.408Z,2.50
2018-06-18T18:59:02.781Z,2.40
2018-06-18T19:01:31.143Z,2.33
2018-06-18T19:04:01.903Z,2.10
2018-06-18T19:06:30.194Z,2.10
2018-06-18T19:08:58.495Z,2.47
2018-06-18T19:11:26.932Z,2.63
2018-06-18T19:13:55.226Z,2.33
2018-06-18T19:16:23.549Z,2.50
2018-06-18T19:18:56.846Z,2.17
2018-06-18T19:21:25.322Z,2.40
2018-06-18T19:23:53.665Z,2.40
2018-06-18T19:26:21.986Z,2.60
2018-06-18T19:28:50.282Z,2.40
2018-06-18T19:31:21.598Z,2.37
2018-06-18T19:33:59.652Z,2.17
2018-06-18T19:36:28.023Z,2.43
2018-06-18T19:38:56.317Z,2.33
2018-06-18T19:41:24.617Z,2.60
2018-06-18T19:43:53.303Z,2.60
2018-06-18T19:46:27.183Z,2.47
2018-06-18T19:49:00.262Z,2.40
2018-06-18T19:51:28.597Z,3.17
2018-06-18T19:53:56.922Z,4.03
2018-06-18T19:56:25.326Z,3.57
2018-06-18T19:58:54.043Z,3.40
2018-06-18T20:01:22.347Z,3.00
2018-06-18T20:03:50.689Z,3.53
2018-06-18T20:06:19.003Z,3.10
2018-06-18T20:08:47.344Z,3.20
2018-06-18T20:11:15.676Z,2.40
2018-06-18T20:13:44.090Z,3.50
2018-06-18T20:16:12.414Z,3.30
2018-06-18T20:18:40.823Z,3.80
2018-06-18T20:21:09.122Z,3.30
2018-06-18T20:23:37.482Z,3.60
2018-06-18T20:26:09.280Z,3.83
2018-06-18T20:28:37.707Z,4.40
2018-06-18T20:31:06.195Z,3.90
2018-06-18T20:33:37.054Z,4.30
2018-06-18T20:36:09.315Z,4.53
2018-06-18T20:38:37.665Z,4.43
2018-06-18T20:41:06.426Z,4.47
2018-06-18T20:43:46.954Z,4.40
2018-06-18T20:46:15.263Z,4.53
2018-06-18T20:48:43.687Z,4.40
2018-06-18T20:51:12.007Z,5.23
2018-06-18T20:53:40.335Z,4.87
2018-06-18T20:56:08.654Z,5.00
2018-06-18T20:58:36.961Z,5.17
2018-06-18T21:01:05.721Z,5.10
2018-06-18T21:03:34.044Z,4.93
2018-06-18T21:06:02.343Z,4.73
2018-06-18T21:08:30.663Z,5.00
2018-06-18T21:10:58.975Z,5.20
2018-06-18T21:13:27.314Z,4.90
2018-06-18T21:15:55.614Z,5.20
2018-06-18T21:18:23.931Z,4.87
2018-06-18T21:20:52.251Z,4.77
2018-06-18T21:23:20.602Z,5.40
2018-06-18T21:25:48.914Z,5.37
2018-06-18T21:28:17.265Z,5.00
2018-06-18T21:30:45.545Z,5.07
2018-06-18T21:33:13.851Z,4.60
2018-06-18T21:35:42.159Z,4.20
2018-06-18T21:38:10.458Z,4.83
2018-06-18T21:40:38.775Z,4.53
2018-06-18T21:43:07.066Z,5.30
2018-06-18T21:45:35.397Z,4.93
2018-06-18T21:48:03.725Z,4.87
2018-06-18T21:50:32.046Z,4.70
2018-06-18T21:53:00.354Z,5.00
2018-06-18T21:55:28.680Z,5.00
2018-06-18T21:57:56.982Z,5.30
2018-06-18T22:00:28.347Z,5.40
2018-06-18T22:02:56.647Z,5.17
2018-06-18T22:05:24.970Z,5.80
2018-06-18T22:07:53.459Z,4.80
2018-06-18T22:10:21.814Z,5.30
2018-06-18T22:12:50.138Z,5.33
2018-06-18T22:15:18.458Z,5.23
2018-06-18T22:17:46.789Z,5.30
2018-06-18T22:20:15.091Z,5.00
2018-06-18T22:22:43.414Z,5.30
2018-06-18T22:25:11.731Z,5.40
2018-06-18T22:27:40.086Z,5.50
2018-06-18T22:30:08.383Z,5.90
2018-06-18T22:32:36.720Z,5.47
2018-06-18T22:35:05.046Z,6.00
2018-06-18T22:37:33.362Z,5.83
2018-06-18T22:40:01.671Z,5.50
2018-06-18T22:42:30.033Z,5.50
2018-06-18T22:44:58.303Z,6.07
2018-06-18T22:47:26.641Z,5.90
2018-06-18T22:49:54.951Z,5.20
2018-06-18T22:52:23.299Z,5.80
2018-06-18T22:54:51.617Z,5.20
2018-06-18T22:57:19.979Z,5.70
2018-06-18T22:59:48.299Z,5.30
2018-06-18T23:02:19.814Z,5.67
2018-06-18T23:04:48.125Z,5.80
2018-06-18T23:07:16.459Z,5.60
2018-06-18T23:09:44.790Z,6.30
2018-06-18T23:12:13.410Z,5.70
2018-06-18T23:14:41.779Z,5.50
2018-06-18T23:17:10.107Z,6.50
2018-06-18T23:19:38.438Z,5.67
2018-06-18T23:22:06.950Z,5.93
2018-06-18T23:24:39.350Z,6.53
2018-06-18T23:27:08.370Z,6.70
2018-06-18T23:29:36.678Z,6.40
2018-06-18T23:32:05.035Z,5.70
2018-06-18T23:34:33.358Z,6.43
2018-06-18T23:37:01.666Z,6.93
2018-06-18T23:39:29.995Z,6.63
2018-06-18T23:41:58.583Z,6.30
2018-06-18T23:44:26.914Z,6.27
2018-06-18T23:46:55.223Z,6.00
2018-06-18T23:49:23.547Z,6.57
2018-06-18T23:51:52.814Z,6.17
2018-06-18T23:54:21.147Z,5.50
2018-06-18T23:56:49.468Z,6.20
2018-06-18T23:59:17.803Z,5.83
